createdAt,value
2018-07-14T00:01:27.765Z,17.20
2018-07-14T00:03:57.732Z,17.10
2018-07-14T00:06:27.671Z,17.00
2018-07-14T00:08:57.739Z,17.00
2018-07-14T00:11:27.698Z,16.90
2018-07-14T00:13:57.656Z,16.90
2018-07-14T00:16:27.640Z,16.80
2018-07-14T00:18:57.580Z,16.90
2018-07-14T00:21:27.560Z,16.80
2018-07-14T00:23:57.533Z,16.80
2018-07-14T00:26:27.489Z,16.80
2018-07-14T00:28:57.468Z,16.70
2018-07-14T00:31:27.450Z,16.70
2018-07-14T00:33:57.391Z,16.80
2018-07-14T00:36:27.350Z,16.90
2018-07-14T00:38:57.285Z,16.80
2018-07-14T00:41:27.227Z,16.90
2018-07-14T00:43:57.175Z,16.90
2018-07-14T00:46:27.122Z,17.00
2018-07-14T00:48:57.125Z,17.20
2018-07-14T00:51:27.080Z,17.30
2018-07-14T00:53:57.011Z,17.40
2018-07-14T00:56:26.955Z,17.50
2018-07-14T00:58:57.019Z,17.50
2018-07-14T01:01:26.958Z,17.60
2018-07-14T01:03:57.027Z,17.60
2018-07-14T01:06:26.972Z,17.60
2018-07-14T01:08:56.883Z,17.60
2018-07-14T01:11:26.820Z,17.60
2018-07-14T01:13:56.780Z,17.50
2018-07-14T01:16:26.724Z,17.40
2018-07-14T01:18:56.756Z,17.40
2018-07-14T01:21:26.737Z,17.50
2018-07-14T01:23:56.770Z,17.40
2018-07-14T01:26:26.703Z,17.50
2018-07-14T01:28:56.632Z,17.40
2018-07-14T01:31:26.588Z,17.40
2018-07-14T01:33:56.553Z,17.40
2018-07-14T01:36:26.495Z,17.40
2018-07-14T01:38:56.505Z,17.30
2018-07-14T01:41:26.465Z,17.40
2018-07-14T01:43:56.476Z,17.40
2018-07-14T01:46:26.415Z,17.40
2018-07-14T01:48:56.347Z,17.40
2018-07-14T01:51:26.517Z,17.50
2018-07-14T01:53:56.456Z,17.50
2018-07-14T01:56:26.391Z,17.50
2018-07-14T01:58:56.400Z,17.40
2018-07-14T02:01:26.383Z,17.40
2018-07-14T02:03:56.308Z,17.40
2018-07-14T02:06:26.248Z,17.40
2018-07-14T02:08:56.188Z,17.30
2018-07-14T02:11:26.137Z,17.30
2018-07-14T02:13:56.184Z,17.20
2018-07-14T02:16:26.148Z,17.10
2018-07-14T02:18:56.123Z,17.10
2018-07-14T02:21:26.059Z,16.90
2018-07-14T02:23:55.983Z,16.80
2018-07-14T02:26:25.920Z,16.80
2018-07-14T02:28:55.867Z,16.70
2018-07-14T02:31:25.878Z,16.60
2018-07-14T02:33:55.836Z,16.50
2018-07-14T02:36:25.787Z,16.40
2018-07-14T02:38:55.731Z,16.30
2018-07-14T02:41:25.679Z,16.20
2018-07-14T02:43:55.608Z,16.20
2018-07-14T02:46:25.648Z,16.10
2018-07-14T02:48:55.590Z,16.10
2018-07-14T02:51:25.589Z,16.00
2018-07-14T02:53:55.531Z,16.00
2018-07-14T02:56:25.479Z,16.00
2018-07-14T02:58:55.391Z,16.10
2018-07-14T03:01:25.336Z,16.00
2018-07-14T03:03:55.359Z,16.10
2018-07-14T03:06:25.300Z,16.10
2018-07-14T03:08:55.291Z,16.10
2018-07-14T03:11:25.237Z,16.20
2018-07-14T03:13:55.200Z,16.30
2018-07-14T03:16:25.166Z,16.30
2018-07-14T03:18:55.103Z,16.30
2018-07-14T03:21:25.044Z,16.30
2018-07-14T03:23:54.987Z,16.20
2018-07-14T03:26:24.975Z,16.20
2018-07-14T03:28:54.944Z,16.10
2018-07-14T03:31:24.885Z,16.00
2018-07-14T03:33:54.840Z,16.00
2018-07-14T03:36:24.787Z,16.00
2018-07-14T03:38:54.751Z,15.90
2018-07-14T03:41:24.690Z,15.90
2018-07-14T03:43:54.624Z,16.00
2018-07-14T03:46:24.563Z,16.00
2018-07-14T03:48:54.624Z,16.00
2018-07-14T03:51:24.560Z,16.10
2018-07-14T03:53:54.483Z,16.20
2018-07-14T03:56:24.419Z,16.20
2018-07-14T03:58:54.364Z,16.20
2018-07-14T04:01:24.301Z,16.40
2018-07-14T04:03:54.247Z,16.40
2018-07-14T04:06:24.189Z,16.50
2018-07-14T04:08:54.139Z,16.50
2018-07-14T04:11:24.075Z,16.50
2018-07-14T04:13:54.019Z,16.60
2018-07-14T04:16:24.043Z,16.70
2018-07-14T04:18:54.004Z,16.70
2018-07-14T04:21:23.930Z,16.80
2018-07-14T04:23:53.880Z,16.90
2018-07-14T04:26:23.806Z,17.00
2018-07-14T04:28:53.760Z,17.00
2018-07-14T04:31:23.690Z,17.00
2018-07-14T04:33:53.624Z,17.10
2018-07-14T04:36:23.563Z,17.10
2018-07-14T04:38:53.499Z,17.10
2018-07-14T04:41:23.430Z,17.20
2018-07-14T04:43:53.368Z,17.20
2018-07-14T04:46:23.318Z,17.30
2018-07-14T04:48:53.307Z,17.30
2018-07-14T04:51:23.247Z,17.40
2018-07-14T04:53:53.210Z,17.40
2018-07-14T04:56:23.135Z,17.50
2018-07-14T04:58:53.079Z,17.50
2018-07-14T05:01:23.091Z,17.60
2018-07-14T05:03:53.043Z,17.60
2018-07-14T05:06:23.039Z,17.70
2018-07-14T05:08:52.935Z,17.80
2018-07-14T05:11:22.891Z,17.80
2018-07-14T05:13:52.933Z,17.90
2018-07-14T05:16:22.872Z,18.00
2018-07-14T05:18:52.816Z,18.00
2018-07-14T05:21:22.804Z,18.10
2018-07-14T05:23:52.705Z,18.10
2018-07-14T05:26:22.636Z,18.10
2018-07-14T05:28:52.595Z,18.20
2018-07-14T05:31:22.544Z,18.30
2018-07-14T05:33:52.479Z,18.30
2018-07-14T05:36:22.430Z,18.30
2018-07-14T05:38:52.396Z,18.40
2018-07-14T05:41:22.327Z,18.40
2018-07-14T05:43:52.318Z,18.50
2018-07-14T05:46:22.240Z,18.60
2018-07-14T05:48:52.188Z,18.60
2018-07-14T05:51:22.143Z,18.60
2018-07-14T05:53:52.084Z,18.70
2018-07-14T05:56:22.052Z,18.80
2018-07-14T05:58:51.995Z,18.90
2018-07-14T06:01:22.171Z,19.00
2018-07-14T06:03:52.127Z,19.10
2018-07-14T06:06:22.172Z,19.20
2018-07-14T06:08:52.115Z,19.20
2018-07-14T06:11:22.070Z,19.30
2018-07-14T06:13:52.093Z,19.40
2018-07-14T06:16:22.043Z,19.50
2018-07-14T06:18:52.195Z,19.60
2018-07-14T06:21:22.099Z,19.70
2018-07-14T06:23:52.053Z,19.90
2018-07-14T06:26:21.987Z,20.10
2018-07-14T06:28:51.947Z,20.20
2018-07-14T06:31:21.892Z,20.40
2018-07-14T06:33:51.853Z,20.50
2018-07-14T06:36:21.887Z,20.50
2018-07-14T06:38:51.830Z,20.50
2018-07-14T06:41:21.771Z,20.60
2018-07-14T06:43:51.881Z,20.60
2018-07-14T06:46:21.815Z,20.70
2018-07-14T06:48:51.795Z,20.70
2018-07-14T06:51:21.834Z,20.80
2018-07-14T06:53:51.768Z,20.90
2018-07-14T06:56:21.700Z,20.90
2018-07-14T06:58:51.647Z,21.10
2018-07-14T07:01:21.579Z,21.10
2018-07-14T07:03:51.539Z,21.20
2018-07-14T07:06:21.499Z,21.30
2018-07-14T07:08:51.437Z,21.40
2018-07-14T07:11:21.371Z,21.60
2018-07-14T07:13:51.427Z,21.60
2018-07-14T07:16:21.367Z,21.70
2018-07-14T07:18:51.331Z,21.80
2018-07-14T07:21:21.329Z,21.90
2018-07-14T07:23:51.280Z,21.80
2018-07-14T07:26:21.224Z,21.80
2018-07-14T07:28:51.618Z,21.80
2018-07-14T07:31:21.452Z,22.00
2018-07-14T07:33:51.457Z,22.40
2018-07-14T07:38:51.232Z,23.50
2018-07-14T07:41:21.271Z,23.80
2018-07-14T07:43:51.556Z,23.90
2018-07-14T07:46:21.599Z,24.10
2018-07-14T07:48:51.556Z,24.30
2018-07-14T07:51:21.512Z,24.40
2018-07-14T07:53:51.457Z,24.40
2018-07-14T07:56:21.387Z,24.70
2018-07-14T07:58:51.385Z,24.80
2018-07-14T08:01:21.337Z,25.20
2018-07-14T08:03:51.301Z,25.40
2018-07-14T08:06:21.343Z,25.40
2018-07-14T08:08:51.419Z,25.40
2018-07-14T08:11:21.363Z,25.50
2018-07-14T08:13:51.847Z,25.80
2018-07-14T08:16:22.052Z,25.80
2018-07-14T08:18:52.000Z,26.00
2018-07-14T08:21:22.013Z,25.90
2018-07-14T08:26:21.671Z,26.30
2018-07-14T08:28:52.012Z,26.20
2018-07-14T08:31:21.988Z,26.00
2018-07-14T08:33:51.932Z,26.10
2018-07-14T08:38:51.467Z,26.10
2018-07-14T08:41:21.415Z,25.90
2018-07-14T08:43:51.856Z,25.80
2018-07-14T08:46:21.722Z,25.70
2018-07-14T08:48:51.667Z,25.70
2018-07-14T08:51:21.663Z,25.90
2018-07-14T08:53:51.592Z,26.10
2018-07-14T08:56:21.504Z,26.10
2018-07-14T08:58:51.426Z,26.30
2018-07-14T09:01:21.431Z,26.50
2018-07-14T09:03:51.368Z,26.50
2018-07-14T09:06:21.348Z,26.50
2018-07-14T09:08:51.379Z,26.60
2018-07-14T09:11:21.516Z,26.60
2018-07-14T09:13:51.520Z,26.70
2018-07-14T09:16:22.088Z,26.60
2018-07-14T09:18:52.079Z,26.60
2018-07-14T09:21:22.120Z,26.60
2018-07-14T09:23:57.802Z,26.90
2018-07-14T09:26:27.780Z,27.00
2018-07-14T09:28:57.887Z,27.10
2018-07-14T09:31:28.152Z,27.30
2018-07-14T09:33:58.155Z,27.30
2018-07-14T09:36:28.079Z,27.50
2018-07-14T09:38:58.007Z,27.60
2018-07-14T09:41:28.039Z,27.70
2018-07-14T09:43:57.997Z,27.60
2018-07-14T09:48:57.516Z,27.70
2018-07-14T09:51:27.400Z,27.90
2018-07-14T09:53:57.335Z,27.90
2018-07-14T09:56:27.283Z,28.00
2018-07-14T09:58:57.229Z,28.10
2018-07-14T10:01:27.161Z,28.30
2018-07-14T10:03:57.132Z,28.30
2018-07-14T10:06:27.117Z,28.40
2018-07-14T10:08:57.014Z,28.40
2018-07-14T10:11:27.077Z,28.60
2018-07-14T10:13:56.993Z,28.70
2018-07-14T10:18:56.659Z,29.00
2018-07-14T10:21:26.560Z,28.90
2018-07-14T10:23:56.616Z,29.20
2018-07-14T10:26:26.544Z,29.00
2018-07-14T10:28:56.473Z,28.80
2018-07-14T10:31:26.404Z,28.80
2018-07-14T10:33:56.462Z,28.90
2018-07-14T10:36:26.331Z,29.20
2018-07-14T10:38:56.250Z,29.10
2018-07-14T10:41:26.180Z,28.70
2018-07-14T10:43:56.249Z,29.00
2018-07-14T10:46:26.177Z,29.00
2018-07-14T10:48:56.105Z,28.90
2018-07-14T10:51:26.075Z,28.60
2018-07-14T10:56:26.096Z,27.90
2018-07-14T11:01:25.696Z,27.50
2018-07-14T11:03:55.608Z,27.60
2018-07-14T11:06:25.587Z,28.00
2018-07-14T11:08:55.503Z,28.10
2018-07-14T11:11:25.465Z,28.50
2018-07-14T11:13:55.391Z,28.80
2018-07-14T11:16:25.421Z,29.10
2018-07-14T11:18:55.349Z,29.00
2018-07-14T11:21:25.256Z,29.30
2018-07-14T11:23:55.244Z,29.40
2018-07-14T11:26:25.340Z,29.40
2018-07-14T11:28:55.270Z,29.60
2018-07-14T11:31:25.263Z,29.30
2018-07-14T11:33:55.291Z,29.50
2018-07-14T11:36:25.464Z,29.60
2018-07-14T11:38:55.440Z,29.80
2018-07-14T11:41:25.500Z,29.60
2018-07-14T11:43:55.533Z,29.80
2018-07-14T11:46:25.588Z,29.90
2018-07-14T11:48:55.706Z,30.20
2018-07-14T11:53:55.375Z,30.60
2018-07-14T11:56:25.409Z,30.50
2018-07-14T11:58:55.539Z,30.70
2018-07-14T12:01:25.891Z,30.80
2018-07-14T12:03:55.759Z,30.60
2018-07-14T12:06:25.835Z,30.70
2018-07-14T12:08:55.970Z,30.10
2018-07-14T12:11:25.852Z,29.60
2018-07-14T12:13:55.929Z,29.30
2018-07-14T12:16:25.964Z,29.60
2018-07-14T12:21:25.920Z,30.50
2018-07-14T12:23:55.951Z,30.50
2018-07-14T12:26:25.982Z,30.90
2018-07-14T12:28:55.910Z,31.00
2018-07-14T12:31:26.252Z,31.00
2018-07-14T12:33:56.172Z,31.20
2018-07-14T12:36:26.105Z,31.30
2018-07-14T12:38:56.136Z,31.30
2018-07-14T12:41:26.167Z,31.20
2018-07-14T12:43:57.063Z,31.20
2018-07-14T12:46:26.988Z,31.30
2018-07-14T12:48:56.923Z,31.40
2018-07-14T12:51:26.880Z,31.40
2018-07-14T12:53:57.020Z,30.90
2018-07-14T12:56:26.867Z,30.60
2018-07-14T12:58:56.767Z,30.60
2018-07-14T13:01:26.696Z,30.90
2018-07-14T13:03:56.731Z,31.20
2018-07-14T13:06:26.649Z,31.10
2018-07-14T13:08:56.691Z,31.30
2018-07-14T13:11:26.853Z,31.30
2018-07-14T13:13:56.878Z,31.50
2018-07-14T13:16:26.763Z,31.50
2018-07-14T13:18:56.696Z,31.90
2018-07-14T13:21:26.971Z,32.00
2018-07-14T13:23:56.993Z,31.80
2018-07-14T13:28:56.564Z,31.70
2018-07-14T13:31:26.760Z,31.80
2018-07-14T13:33:56.687Z,31.50
2018-07-14T13:36:26.616Z,31.60
2018-07-14T13:38:56.579Z,31.70
2018-07-14T13:41:27.012Z,31.30
2018-07-14T13:43:57.051Z,31.50
2018-07-14T13:46:26.975Z,31.70
2018-07-14T13:48:57.004Z,31.70
2018-07-14T13:51:27.342Z,32.00
2018-07-14T13:53:57.270Z,32.30
2018-07-14T13:56:27.198Z,32.40
2018-07-14T14:01:27.157Z,32.40
2018-07-14T14:03:57.056Z,32.40
2018-07-14T14:06:26.979Z,32.20
2018-07-14T14:08:56.941Z,31.60
2018-07-14T14:11:26.876Z,31.20
2018-07-14T14:13:56.901Z,30.90
2018-07-14T14:16:26.830Z,30.70
2018-07-14T14:21:26.994Z,30.50
2018-07-14T14:26:27.092Z,31.10
2018-07-14T14:28:57.292Z,31.40
2018-07-14T14:31:27.220Z,31.70
2018-07-14T14:33:57.234Z,31.70
2018-07-14T14:36:27.120Z,31.80
2018-07-14T14:38:57.082Z,31.80
2018-07-14T14:41:27.232Z,31.60
2018-07-14T14:43:57.170Z,31.10
2018-07-14T14:46:27.099Z,31.10
2018-07-14T14:48:57.027Z,31.10
2018-07-14T14:53:56.543Z,31.00
2018-07-14T14:56:26.506Z,31.10
2018-07-14T14:58:56.433Z,31.30
2018-07-14T15:01:26.567Z,31.30
2018-07-14T15:03:56.599Z,31.20
2018-07-14T15:06:26.494Z,30.50
2018-07-14T15:08:56.419Z,30.20
2018-07-14T15:11:26.603Z,30.40
2018-07-14T15:13:56.624Z,30.70
2018-07-14T15:16:26.603Z,30.80
2018-07-14T15:18:56.455Z,30.70
2018-07-14T15:23:56.408Z,30.80
2018-07-14T15:26:26.365Z,31.20
2018-07-14T15:28:56.293Z,31.40
2018-07-14T15:31:26.245Z,31.50
2018-07-14T15:33:56.194Z,31.50
2018-07-14T15:36:26.115Z,31.50
2018-07-14T15:38:56.048Z,31.60
2018-07-14T15:41:26.413Z,31.60
2018-07-14T15:43:56.478Z,31.50
2018-07-14T15:46:26.406Z,31.00
2018-07-14T15:48:56.347Z,30.90
2018-07-14T15:53:55.992Z,30.80
2018-07-14T15:56:25.915Z,30.80
2018-07-14T15:58:55.895Z,30.90
2018-07-14T16:01:25.815Z,31.00
2018-07-14T16:03:56.009Z,31.20
2018-07-14T16:06:25.937Z,31.00
2018-07-14T16:08:55.866Z,31.10
2018-07-14T16:11:25.746Z,31.20
2018-07-14T16:13:55.675Z,31.30
2018-07-14T16:16:25.607Z,31.10
2018-07-14T16:18:55.665Z,30.60
2018-07-14T16:21:25.571Z,30.40
2018-07-14T16:23:55.511Z,30.20
2018-07-14T16:26:25.468Z,29.90
2018-07-14T16:28:55.500Z,29.70
2018-07-14T16:31:25.530Z,29.80
2018-07-14T16:33:55.459Z,29.90
2018-07-14T16:36:25.387Z,29.80
2018-07-14T16:38:55.315Z,29.80
2018-07-14T16:41:25.200Z,29.70
2018-07-14T16:43:55.153Z,29.60
2018-07-14T16:46:25.064Z,29.60
2018-07-14T16:48:55.030Z,29.90
2018-07-14T16:51:24.958Z,30.50
2018-07-14T16:53:54.851Z,31.20
2018-07-14T16:56:24.775Z,31.30
2018-07-14T16:58:54.704Z,31.60
2018-07-14T17:01:24.627Z,32.20
2018-07-14T17:03:54.601Z,32.10
2018-07-14T17:06:24.531Z,32.20
2018-07-14T17:08:54.423Z,32.60
2018-07-14T17:11:24.359Z,32.50
2018-07-14T17:13:54.417Z,32.50
2018-07-14T17:16:24.233Z,32.50
2018-07-14T17:18:54.157Z,32.40
2018-07-14T17:21:24.180Z,31.80
2018-07-14T17:23:54.088Z,31.80
2018-07-14T17:26:24.062Z,31.90
2018-07-14T17:28:54.127Z,31.80
2018-07-14T17:31:24.067Z,31.70
2018-07-14T17:33:53.975Z,31.10
2018-07-14T17:36:23.982Z,30.50
2018-07-14T17:38:53.910Z,30.10
2018-07-14T17:41:24.045Z,29.40
2018-07-14T17:43:54.052Z,29.00
2018-07-14T17:46:23.901Z,28.70
2018-07-14T17:48:53.796Z,28.40
2018-07-14T17:51:23.768Z,28.20
2018-07-14T17:53:53.739Z,27.90
2018-07-14T17:56:23.700Z,27.70
2018-07-14T17:58:53.825Z,27.50
2018-07-14T18:01:23.885Z,27.30
2018-07-14T18:03:53.809Z,27.20
2018-07-14T18:06:23.756Z,27.00
2018-07-14T18:08:53.691Z,26.90
2018-07-14T18:11:23.747Z,26.90
2018-07-14T18:13:53.691Z,26.70
2018-07-14T18:16:23.694Z,26.60
2018-07-14T18:18:53.550Z,26.40
2018-07-14T18:21:23.463Z,26.30
2018-07-14T18:23:53.491Z,26.20
2018-07-14T18:26:23.424Z,26.10
2018-07-14T18:28:53.376Z,26.00
2018-07-14T18:31:23.432Z,25.80
2018-07-14T18:33:53.399Z,25.70
2018-07-14T18:36:23.487Z,25.50
2018-07-14T18:38:53.448Z,25.40
2018-07-14T18:41:23.430Z,25.20
2018-07-14T18:43:53.437Z,25.00
2018-07-14T18:46:23.327Z,24.90
2018-07-14T18:48:53.294Z,24.70
2018-07-14T18:51:23.319Z,24.60
2018-07-14T18:53:53.300Z,24.40
2018-07-14T18:56:23.539Z,24.30
2018-07-14T18:58:53.859Z,24.20
2018-07-14T19:01:23.932Z,24.10
2018-07-14T19:03:53.952Z,24.00
2018-07-14T19:06:23.907Z,23.90
2018-07-14T19:08:54.014Z,23.70
2018-07-14T19:11:24.030Z,23.50
2018-07-14T19:13:54.063Z,23.40
2018-07-14T19:16:23.990Z,23.20
2018-07-14T19:18:53.926Z,23.10
2018-07-14T19:21:23.948Z,22.90
2018-07-14T19:23:53.960Z,22.80
2018-07-14T19:26:23.940Z,22.60
2018-07-14T19:28:53.900Z,22.50
2018-07-14T19:31:23.908Z,22.30
2018-07-14T19:33:54.006Z,22.20
2018-07-14T19:36:24.282Z,22.10
2018-07-14T19:38:54.266Z,21.90
2018-07-14T19:41:24.195Z,21.80
2018-07-14T19:43:54.239Z,21.60
2018-07-14T19:46:24.322Z,21.50
2018-07-14T19:48:54.390Z,21.50
2018-07-14T19:51:24.424Z,21.40
2018-07-14T19:53:54.299Z,21.30
2018-07-14T19:56:24.236Z,21.30
2018-07-14T19:58:54.208Z,21.20
2018-07-14T20:01:24.134Z,21.10
2018-07-14T20:06:23.993Z,20.90
2018-07-14T20:08:54.021Z,20.80
2018-07-14T20:11:24.063Z,20.70
2018-07-14T20:13:54.480Z,20.70
2018-07-14T20:16:24.738Z,20.60
2018-07-14T20:18:54.770Z,20.50
2018-07-14T20:21:24.763Z,20.40
2018-07-14T20:23:54.936Z,20.40
2018-07-14T20:26:25.067Z,20.30
2018-07-14T20:28:55.239Z,20.20
2018-07-14T20:31:25.333Z,20.20
2018-07-14T20:33:55.252Z,20.20
2018-07-14T20:36:25.332Z,20.10
2018-07-14T20:38:55.319Z,20.10
2018-07-14T20:41:25.399Z,20.10
2018-07-14T20:43:55.251Z,20.00
2018-07-14T20:46:25.324Z,20.10
2018-07-14T20:48:55.248Z,20.10
2018-07-14T20:51:25.220Z,20.20
2018-07-14T20:53:55.505Z,20.10
2018-07-14T20:56:25.536Z,20.10
2018-07-14T20:58:55.568Z,20.00
2018-07-14T21:01:25.496Z,19.90
2018-07-14T21:03:55.731Z,19.80
2018-07-14T21:06:25.762Z,19.70
2018-07-14T21:08:55.794Z,19.60
2018-07-14T21:11:25.722Z,19.60
2018-07-14T21:13:55.753Z,19.60
2018-07-14T21:16:25.760Z,19.60
2018-07-14T21:18:55.711Z,19.60
2018-07-14T21:21:25.825Z,19.50
2018-07-14T21:23:55.671Z,19.40
2018-07-14T21:26:25.569Z,19.40
2018-07-14T21:28:55.529Z,19.30
2018-07-14T21:31:25.662Z,19.20
2018-07-14T21:33:55.590Z,19.20
2018-07-14T21:36:25.621Z,19.00
2018-07-14T21:38:55.549Z,18.90
2018-07-14T21:41:25.477Z,18.90
2018-07-14T21:43:55.610Z,18.80
2018-07-14T21:46:25.641Z,18.70
2018-07-14T21:48:55.570Z,18.70
2018-07-14T21:51:25.528Z,18.70
2018-07-14T21:53:55.529Z,18.60
2018-07-14T21:56:25.457Z,18.60
2018-07-14T21:58:55.401Z,18.50
2018-07-14T22:04:00.310Z,18.40
2018-07-14T22:06:30.293Z,18.40
2018-07-14T22:09:00.224Z,18.40
2018-07-14T22:11:30.116Z,18.40
2018-07-14T22:14:00.078Z,18.40
2018-07-14T22:16:30.007Z,18.40
2018-07-14T22:18:59.935Z,18.30
2018-07-14T22:21:29.966Z,18.30
2018-07-14T22:23:59.859Z,18.20
2018-07-14T22:26:29.823Z,18.20
2018-07-14T22:28:59.898Z,18.20
2018-07-14T22:31:29.847Z,18.30
2018-07-14T22:33:59.813Z,18.50
2018-07-14T22:36:29.756Z,18.50
2018-07-14T22:38:59.671Z,18.60
2018-07-14T22:41:29.598Z,18.60
2018-07-14T22:43:59.527Z,18.60
2018-07-14T22:46:29.455Z,18.60
2018-07-14T22:48:59.348Z,18.70
2018-07-14T22:51:29.313Z,18.80
2018-07-14T22:53:59.241Z,18.80
2018-07-14T22:56:29.170Z,18.80
2018-07-14T22:58:59.203Z,18.90
2018-07-14T23:01:29.082Z,18.90
2018-07-14T23:03:59.056Z,18.90
2018-07-14T23:06:28.985Z,18.90
2018-07-14T23:08:59.223Z,18.90
2018-07-14T23:11:29.150Z,18.90
2018-07-14T23:13:59.081Z,18.90
2018-07-14T23:16:29.007Z,18.70
2018-07-14T23:18:59.740Z,18.70
2018-07-14T23:21:29.661Z,18.60
2018-07-14T23:23:59.611Z,18.50
2018-07-14T23:26:29.497Z,18.50
2018-07-14T23:28:59.424Z,18.40
2018-07-14T23:31:29.396Z,18.50
2018-07-14T23:33:59.325Z,18.60
2018-07-14T23:36:29.253Z,18.80
2018-07-14T23:38:59.163Z,18.90
2018-07-14T23:41:29.213Z,19.20
2018-07-14T23:43:59.144Z,19.40
2018-07-14T23:48:58.794Z,19.50
2018-07-14T23:51:28.826Z,19.40
2018-07-14T23:53:58.731Z,19.30
2018-07-14T23:56:28.640Z,19.20
2018-07-14T23:58:58.610Z,19.00
